Terminal Aerodrome Forecast
Issued by NWS

Home | Current Version | Previous Version | Text Only | Print | Product List | Glossary On
Versions: 1 2 3 4 5 6 7 8 9 10 11 12 13 14 15 16 17 18 19 20 21 22 23 24
133
FTUS41 KPBZ 221009 AAD
TAFFKL
TAF AMD
KFKL 221009Z 2210/2306 00000KT 1/4SM FG BKN001
     FM221200 16003KT P6SM VCSH BKN008
     FM221500 18005KT 5SM -SHRA OVC015
      TEMPO 2217/2218 3SM -TSRA OVC012CB
     FM222000 21006KT P6SM VCSH OVC040
     FM230300 23004KT P6SM OVC030
      AMD LTD TO CLD VIS AND WIND=

USA.gov is the U.S. government's official web portal to all federal, state and local government web resources and services.